Terminal Aerodrome Forecast
Issued by NWS Honolulu, HI

Home | Current Version | Previous Version | Text Only | Print | Product List | Glossary On
Versions: 1 2 3 4 5 6 7 8 9 10 11 12 13 14 15 16 17 18 19 20 21 22 23 24 25
000
FTPA31 PHFO 300310 AAB
TAFHNL
TAF AMD
PHNL 300310Z 3003/3106 14012KT P6SM FEW025 SCT050
     FM300400 09011KT P6SM FEW025 SCT045
     FM300500 06007KT P6SM FEW025 SCT045
     FM302000 09011G17KT P6SM FEW025 SCT050
     FM310500 07007KT P6SM FEW025 SCT045=

USA.gov is the U.S. government's official web portal to all federal, state and local government web resources and services.